Whale Point, California Weather observations

Data are for observation ending at time listed.
 Day   Time    Ave.   Ave.  Ave.  Vector   Max.   Stn.    Total    Solar   Ave.  
  of    of     Air    Rel.  Wind   Wind    Wind   Baro.  Precip.   Rad.    Soil  
Year   Day     Temp.  Hum.  Speed  Dir.    Gust   Pres.                    Temp. 
2017   (PST)    F      %     mph   deg.    mph     mb.     in.     W/m2     F   
------------------------------------------------------------------------------
  16    6:40   48.1    69    2.5   109      4.5   997.0    0.00       0    50.6
  16    6:50   48.3    76    3.1   118      5.8   997.0    0.00       0    50.6
  16    7:00   48.2    76    3.1    96      5.3   997.0    0.00       0    50.5
  16    7:10   47.8    69    4.1    81      8.1   997.0    0.00       1    50.5
  16    7:20   47.6    64    4.2    75      7.2   997.0    0.00       4    50.5
  16    7:30   48.0    66    2.8    87      5.9   997.3    0.00       7    50.4
  16    7:40   47.6    64    3.6    72      6.2   997.3    0.00      10    50.4
  16    7:50   46.5    63    6.3    70     10.2   997.6    0.00      13    50.4
  16    8:00   47.3    62    3.4    74      5.5   997.6    0.00      16    50.3
  16    8:10   47.3    63    3.7    69      6.4   997.6    0.00      19    50.3
  16    8:20   47.1    63    4.1    64      6.7   997.6    0.00      21    50.2
  16    8:30   47.7    63    4.0    69      6.3   997.6    0.00      22    50.2
  16    8:40   48.1    66    2.2    66      4.0   997.6    0.00      23    50.2
  16    8:50   48.5    68    0.6    83      2.0   998.0    0.00      46    50.1
  16    9:00   49.8    66    0.9    78      3.4   998.0    0.00     219    50.1
  16    9:10   50.3    65    1.8    44      3.4   998.0    0.00     306    50.1
  16    9:20   50.5    64    1.5    40      2.6   998.3    0.00     335    50.0
  16    9:30   51.8    63    0.0    40      0.7   998.3    0.00     363    50.0
  16    9:40   53.5    62    0.0     0      0.0   998.3    0.00     389    50.0
  16    9:50   54.2    61    0.3   212      2.8   998.3    0.00     414    50.0
  16   10:00   52.9    65    2.9   213      4.2   998.6    0.00     436    50.0
  16   10:10   52.1    67    3.3   208      5.0   998.6    0.00     458    49.9
  16   10:20   51.9    68    4.0   211      5.5   998.6    0.00     480    49.9
  16   10:30   51.7    69    3.9   220      5.3   999.0    0.00     498    49.9
  16   10:40   52.1    69    3.7   217      5.6   999.0    0.00     518    49.9
  16   10:50   52.2    70    3.9   216      5.9   999.0    0.00     534    49.9
  16   11:00   52.5    71    4.1   218      6.2   998.6    0.00     549    49.9
  16   11:10   52.7    72    4.6   219      6.2   998.6    0.00     562    49.9
  16   11:20   52.7    72    4.9   221      6.6   998.6    0.00     573    49.9
  16   11:30   52.8    72    4.4   219      6.2   998.6    0.00     581    50.0
  16   11:40   53.4    71    4.8   216      7.3   998.3    0.00     589    50.0
  16   11:50   53.6    70    4.3   216      6.9   998.3    0.00     594    50.1
  16   12:00   53.2    72    4.5   218      6.4   998.3    0.00     598    50.1
  16   12:10   53.4    72    5.2   219      6.7   998.3    0.00     599    50.2
  16   12:20   53.2    73    5.2   224      7.3   998.3    0.00     600    50.3
  16   12:30   53.5    72    5.5   221      8.6   998.0    0.00     596    50.3
  16   12:40   53.6    73    5.6   217      8.5   998.0    0.00     595    50.4
  16   12:50   53.6    73    5.9   226      8.6   997.6    0.00     590    50.5
  16   13:00   53.4    74    5.8   218      8.4   997.6    0.00     582    50.5
  16   13:10   54.4    72    5.1   223      7.6   997.3    0.00     575    50.6
  16   13:20   54.3    72    5.2   222      8.5   997.3    0.00     565    50.7
  16   13:30   54.7    72    5.9   230      8.9   997.0    0.00     553    50.8
  16   13:40   54.8    72    5.8   225      9.1   997.0    0.00     541    50.9
  16   13:50   55.3    72    5.6   223      8.7   997.0    0.00     525    51.0
  16   14:00   54.7    73    5.2   225      7.8   997.3    0.00     508    51.1
  16   14:10   54.6    73    5.1   227      8.0   997.3    0.00     489    51.2
  16   14:20   54.2    73    5.7   230      8.6   997.3    0.00     469    51.4
  16   14:30   54.0    74    5.1   223      8.2   997.0    0.00     447    51.5
  16   14:40   55.0    72    5.2   227      7.5   997.0    0.00     425    51.6
  16   14:50   54.8    73    4.9   228      9.0   997.0    0.00     400    51.7
  16   15:00   54.7    73    6.0   227      8.6   997.3    0.00     361    51.9
  16   15:10   54.5    73    5.0   227      8.0   997.3    0.00     347    52.0
  16   15:20   55.1    72    3.8   247      6.3   997.3    0.00     320    52.1
  16   15:30   54.9    72    1.2   326      4.7   997.0    0.00     293    52.2
  16   15:40   56.2    70    3.1   238      6.7   997.0    0.00     265    52.4
  16   15:50   55.7    70    4.3   245      8.1   997.0    0.00     224    52.5
  16   16:00   54.7    73    3.4   286      8.3   997.0    0.00     209    52.6
  16   16:10   54.2    74    5.1   275     11.3   997.3    0.00     180    52.8
  16   16:20   53.9    74    5.4   272     10.1   997.3    0.00     151    52.9
  16   16:30   52.8    77    2.9   292     10.1   997.3    0.00     123    53.0
  16   16:40   53.5    75    1.3   313      3.2   997.3    0.00      98    53.1
  16   16:50   53.0    76    2.3    10      5.7   997.0    0.00      64    53.2
  16   17:00   53.1    76    1.1   117      4.9   996.6    0.00      45    53.3
  16   17:10   52.6    76    0.1   350      1.2   996.6    0.00      22    53.4
  16   17:20   51.6    80    1.2    43      4.9   996.6    0.00       4    53.5
  16   17:30   50.5    82    1.8   113      6.4   996.6    0.00       1    53.6
  16   17:40   49.7    85    1.7   166      3.7   996.6    0.00       0    53.6
  16   17:50   49.1    86    1.9   130      4.1   996.6    0.00       0    53.7
  16   18:00   49.3    86    0.4   342      1.7   996.6    0.00       0    53.7
  16   18:10   49.1    85    0.5    74      2.6   996.6    0.00       0    53.7
  16   18:20   48.8    84    2.0    36      5.0   996.6    0.00       0    53.7
  16   18:30   48.8    82    6.1    29      7.7   996.6    0.00       0    53.7
  16   18:40   50.4    76    6.4    46      8.5   996.6    0.00       0    53.7
  16   18:50   51.2    72    6.6    65      9.4   996.6    0.00       0    53.7
  16   19:00   51.5    69    7.1    59      9.6   996.6    0.00       0    53.7
  16   19:10   52.2    65    7.3    54     10.2   996.3    0.00       0    53.7
  16   19:20   52.4    61    6.1    50      8.8   996.6    0.00       0    53.7
  16   19:30   51.8    61    4.9    41      6.9   996.6    0.00       0    53.7
  16   19:40   51.4    62    1.8    85      6.5   996.6    0.00       0    53.6
  16   19:50   50.1    72    3.2   142      7.0   997.0    0.00       0    53.6
  16   20:00   49.8    75    3.0   152      6.9   997.0    0.00       0    53.6
  16   20:10   49.4    78    0.2   157      3.4   997.0    0.00       0    53.6
  16   20:20   48.4    81    3.2   141      6.1   997.3    0.00       0    53.5
  16   20:30   48.8    86    2.0   144      5.1   997.3    0.00       0    53.5
  16   20:40   49.0    87    0.4    58      2.8   997.6    0.00       0    53.5
  16   20:50   48.7    86    1.2    76      5.6   997.6    0.00       0    53.4
  16   21:00   48.7    78    2.8    70      5.2   997.6    0.00       0    53.3
  16   21:10   48.7    71    4.6    65      7.7   997.6    0.00       0    53.3
  16   21:20   48.8    67    6.5    65      9.4   997.6    0.00       0    53.3
  16   21:30   48.7    66    5.3    52      9.2   997.6    0.00       0    53.2
  16   21:40   49.2    63    0.8   121      3.1   997.6    0.00       0    53.2
  16   21:50   49.5    65    0.1   218      1.1   997.6    0.00       0    53.1
  16   22:00   49.7    70    0.0     0      0.0   997.6    0.00       0    53.1
  16   22:10   49.6    71    0.1    58      1.4   997.6    0.00       0    53.0
  16   22:20   49.2    63    3.7    64      6.8   997.3    0.00       0    53.0
  16   22:30   49.0    59    6.6    63      8.8   997.3    0.00       0    52.9
  16   22:40   49.8    53    6.0    73      8.9   997.0    0.00       0    52.9
  16   22:50   51.0    51    1.2   115      6.9   997.0    0.00       0    52.8
  16   23:00   49.5    60    1.8    76      4.1   997.0    0.00       0    52.8
  16   23:10   50.4    54    1.5    46      4.2   997.0    0.00       0    52.7
  16   23:20   51.1    54    0.6   104      2.7   997.3    0.00       0    52.7
  16   23:30   50.8    50    0.7    98      3.0   997.3    0.00       0    52.6
  16   23:40   50.1    56    1.6   116      4.3   997.3    0.00       0    52.6
  16   23:50   49.5    53    0.8   145      2.9   997.3    0.00       0    52.5
  17    0:00   49.1    64    1.2   134      2.5   997.3    0.00       0    52.5
  17    0:10   49.4    67    0.3    60      1.6   997.3    0.00       0    52.4
  17    0:20   49.4    52    3.3    75      6.9   997.0    0.00       0    52.3
  17    0:30   49.4    49    4.2    69      7.3   997.0    0.00       0    52.3
  17    0:40   50.3    45    3.7    68      7.7   997.0    0.00       0    52.2
  17    0:50   50.6    44    2.2    61      5.8   997.0    0.00       0    52.2
  17    1:00   50.1    56    0.3   227      1.8   997.0    0.00       0    52.1
  17    1:10   49.7    60    0.0     0      0.0   997.0    0.00       0    52.1
  17    1:20   49.8    54    0.0    52      1.2   997.0    0.00       0    52.0
  17    1:30   50.1    44    1.8    66      4.2   997.0    0.00       0    52.0
  17    1:40   50.6    43    1.5   122      3.6   997.3    0.00       0    51.9
  17    1:50   50.0    52    1.0    70      6.2   997.3    0.00       0    51.9
  17    2:00   50.4    42    4.0    62      6.5   997.6    0.00       0    51.8
  17    2:10   50.7    42    7.5    67     11.3   997.3    0.00       0    51.7
  17    2:20   51.1    41    8.4    59     11.2   997.3    0.00       0    51.7
  17    2:30   51.6    40    7.5    62      9.5   997.3    0.00       0    51.6
  17    2:40   51.9    37    3.0    94      7.7   997.3    0.00       0    51.6
  17    2:50   50.9    50    1.5   321      3.4   997.3    0.00       0    51.5
  17    3:00   50.7    44    1.7    68      7.0   997.0    0.00       0    51.5
  17    3:10   51.1    40    5.5    65      8.0   997.0    0.00       0    51.4
  17    3:20   51.4    39    5.2    73      8.0   996.6    0.00       0    51.4
  17    3:30   51.4    39    6.1    69      9.2   996.6    0.00       0    51.3
  17    3:40   51.6    40    2.2   124      6.6   996.6    0.00       0    51.3
  17    3:50   50.7    50    0.2   128      1.5   996.6    0.00       0    51.3
  17    4:00   50.9    55    0.7    65      3.1   997.0    0.00       0    51.2
  17    4:10   50.9    53    2.2    49      5.6   997.3    0.00       0    51.2
  17    4:20   50.1    45    6.1    66     10.2   997.3    0.00       0    51.1
  17    4:30   50.2    45    8.5    66     11.0   997.3    0.00       0    51.1
  17    4:40   50.3    46    8.7    65     11.5   997.0    0.00       0    51.0
  17    4:50   50.6    45    9.0    66     11.8   997.0    0.00       0    51.0
  17    5:00   51.1    43    8.9    60     11.5   996.6    0.00       0    50.9
  17    5:10   51.7    40    7.9    59     10.9   996.6    0.00       0    50.9
  17    5:20   52.3    39    4.0    72      7.9   997.0    0.00       0    50.8
  17    5:30   52.2    45    0.5   123      2.6   997.3    0.00       0    50.8
  17    5:40   51.4    47    1.0   201      3.3   997.3    0.00       0    50.8
  17    5:50   50.0    49    0.8    94      2.3   997.3    0.00       0    50.8
  17    6:00   49.4    58    1.8   130      3.8   997.3    0.00       0    50.7
  17    6:10   49.5    54    3.2    70      8.6   997.0    0.00       0    50.7
  17    6:20   50.1    46    5.6    79      8.4   997.0    0.00       0    50.6
  17    6:30   51.2    44    2.3    90      5.2   996.6    0.00       0    50.6

Return to Whale Point graphs page.


Western Regional Climate Center,wrcc@dri.edu